Time;durP1;ratioP1;P1;durP2;ratioP2;P2;SDS_P1;SDS_P2;PMS_P1;PMS_P2;Temp;Humidity;BMP_temperature;BMP_pressure;BME280_temperature;BME280_humidity;BME280_pressure;Samples;Min_cycle;Max_cycle;Signal;HPM_P1;HPM_P2
2022/10/22 00:04:24;;;;;;;24.38;14.13;;;10.20;99.90;;;;;;10402696;28;20026;-79
2022/10/22 00:09:25;;;;;;;25.58;14.60;;;10.20;99.90;;;;;;10412423;28;20142;-80
2022/10/22 00:14:25;;;;;;;23.80;14.60;;;10.10;99.90;;;;;;10401513;28;20111;-80
2022/10/22 00:19:27;;;;;;;25.77;14.82;;;10.10;99.90;;;;;;10410969;28;20036;-78
2022/10/22 00:24:27;;;;;;;28.67;14.73;;;10.10;99.90;;;;;;10411729;28;20483;-80
2022/10/22 00:29:28;;;;;;;24.90;13.53;;;10.10;99.90;;;;;;10410106;28;20033;-79
2022/10/22 00:34:29;;;;;;;22.27;12.32;;;10.00;99.90;;;;;;10397042;28;20037;-79
2022/10/22 00:39:29;;;;;;;24.63;12.80;;;10.00;99.90;;;;;;10410157;28;20029;-78
2022/10/22 00:45:03;;;;;;;22.77;11.80;;;9.90;99.90;;;;;;10402593;28;20044;-78
2022/10/22 00:50:08;;;;;;;22.75;11.63;;;9.90;99.90;;;;;;10408218;28;20059;-78
2022/10/22 00:55:09;;;;;;;22.40;11.90;;;9.90;99.90;;;;;;10407707;28;20037;-83
2022/10/22 01:00:10;;;;;;;20.85;12.65;;;9.80;99.90;;;;;;10407834;28;20026;-78
2022/10/22 01:05:11;;;;;;;21.03;12.97;;;9.80;99.90;;;;;;10409179;28;20192;-79
2022/10/22 01:10:32;;;;;;;31.60;15.23;;;9.80;99.90;;;;;;10403119;28;20029;-81
2022/10/22 01:15:47;;;;;;;28.00;15.07;;;9.80;99.90;;;;;;10402753;28;20041;-78
2022/10/22 01:21:23;;;;;;;29.17;15.70;;;9.80;99.90;;;;;;10409622;28;20091;-79
2022/10/22 01:26:33;;;;;;;32.22;14.80;;;9.70;99.90;;;;;;10397660;28;20025;-78
2022/10/22 01:31:40;;;;;;;26.42;14.88;;;9.70;99.90;;;;;;10399444;28;20554;-82
2022/10/22 01:36:41;;;;;;;28.23;16.17;;;9.70;99.90;;;;;;10405554;28;20064;-78
2022/10/22 01:41:46;;;;;;;23.60;11.88;;;9.70;99.90;;;;;;10385073;28;20038;-80
2022/10/22 01:46:50;;;;;;;17.53;9.80;;;9.70;99.90;;;;;;10391370;28;20389;-78
2022/10/22 01:52:22;;;;;;;16.90;10.25;;;9.80;99.90;;;;;;10409072;28;20021;-80
2022/10/22 01:57:44;;;;;;;17.25;9.85;;;9.90;99.90;;;;;;10403064;28;20052;-78
2022/10/22 02:03:04;;;;;;;16.17;9.52;;;9.80;99.90;;;;;;10395250;28;20026;-83
2022/10/22 02:08:17;;;;;;;15.38;9.65;;;9.80;99.90;;;;;;10398896;28;20057;-80
2022/10/22 02:13:34;;;;;;;18.08;10.27;;;9.80;99.90;;;;;;10403907;28;20393;-80
2022/10/22 02:18:38;;;;;;;15.70;10.15;;;9.80;99.90;;;;;;10406056;28;20461;-78
2022/10/22 02:23:39;;;;;;;19.13;10.57;;;9.70;99.90;;;;;;10407588;28;20040;-78
2022/10/22 02:28:50;;;;;;;23.38;11.93;;;9.70;99.90;;;;;;10397910;28;20475;-81
2022/10/22 02:33:55;;;;;;;24.48;13.73;;;9.70;99.90;;;;;;10406358;28;20158;-79
2022/10/22 02:38:56;;;;;;;23.13;13.70;;;9.60;99.90;;;;;;10390392;28;20057;-82
2022/10/22 02:43:56;;;;;;;26.35;15.60;;;9.60;99.90;;;;;;10400553;28;20160;-79
2022/10/22 02:48:57;;;;;;;30.00;14.73;;;9.50;99.90;;;;;;10392834;28;20432;-79
2022/10/22 02:53:57;;;;;;;24.92;13.13;;;9.50;99.90;;;;;;10405488;28;20363;-80
2022/10/22 02:58:58;;;;;;;26.80;14.53;;;9.40;99.90;;;;;;10403038;28;20034;-78
2022/10/22 03:03:58;;;;;;;30.73;15.17;;;9.40;99.90;;;;;;10394009;28;20029;-79
2022/10/22 03:08:59;;;;;;;31.47;16.77;;;9.30;99.90;;;;;;10406347;28;20053;-77
2022/10/22 03:14:00;;;;;;;29.37;16.50;;;9.30;99.90;;;;;;10402812;28;20033;-79
2022/10/22 03:19:00;;;;;;;31.27;16.23;;;9.20;99.90;;;;;;10405133;28;20176;-79
2022/10/22 03:24:12;;;;;;;23.70;13.37;;;9.30;99.90;;;;;;10401962;28;20155;-78
2022/10/22 03:29:14;;;;;;;20.67;13.30;;;9.20;99.90;;;;;;10404575;28;20044;-79
2022/10/22 03:34:14;;;;;;;28.77;15.43;;;9.20;99.90;;;;;;10403673;28;20680;-81
2022/10/22 03:39:18;;;;;;;23.33;14.90;;;9.20;99.90;;;;;;10407561;28;20025;-80
2022/10/22 03:44:19;;;;;;;25.57;13.30;;;9.20;99.90;;;;;;10408344;28;20030;-79
2022/10/22 03:49:20;;;;;;;30.00;16.80;;;9.20;99.90;;;;;;10409793;28;20039;-78
2022/10/22 03:54:20;;;;;;;26.60;16.37;;;9.20;99.90;;;;;;10412217;28;20041;-81
2022/10/22 03:59:21;;;;;;;27.93;14.70;;;9.10;99.90;;;;;;10402992;28;20049;-78
2022/10/22 04:04:21;;;;;;;30.20;14.93;;;9.10;99.90;;;;;;10400827;28;20116;-77
2022/10/22 04:09:22;;;;;;;31.90;19.07;;;9.00;99.90;;;;;;10397464;28;20065;-78
2022/10/22 04:14:23;;;;;;;53.33;28.60;;;9.00;99.90;;;;;;10408678;28;20069;-78
2022/10/22 04:19:23;;;;;;;73.80;34.30;;;8.90;99.90;;;;;;10410428;28;20030;-80
2022/10/22 04:24:24;;;;;;;42.30;21.27;;;8.80;99.90;;;;;;10411812;28;20029;-79
2022/10/22 04:29:25;;;;;;;32.47;17.67;;;8.80;99.90;;;;;;10397378;28;20091;-79
2022/10/22 04:34:27;;;;;;;40.43;23.10;;;8.80;99.90;;;;;;10402226;28;20129;-78
2022/10/22 04:39:28;;;;;;;36.90;20.10;;;8.80;99.90;;;;;;10401915;28;20053;-82
2022/10/22 04:44:28;;;;;;;28.43;16.83;;;8.80;99.90;;;;;;10400460;28;20068;-79
2022/10/22 04:49:29;;;;;;;40.07;20.50;;;8.80;99.90;;;;;;10411895;28;20030;-79
2022/10/22 04:54:29;;;;;;;40.03;22.43;;;8.60;99.90;;;;;;10407272;28;20073;-79
2022/10/22 04:59:30;;;;;;;31.33;18.90;;;8.40;99.90;;;;;;10393075;28;20112;-80
2022/10/22 05:04:31;;;;;;;38.00;19.90;;;8.20;99.90;;;;;;10396524;28;20039;-79
2022/10/22 05:09:31;;;;;;;29.37;16.70;;;8.20;99.90;;;;;;10399494;28;20053;-80
2022/10/22 05:14:32;;;;;;;29.83;15.67;;;8.20;99.90;;;;;;10396036;28;20535;-79
2022/10/22 05:19:32;;;;;;;35.20;19.60;;;8.30;99.90;;;;;;10410262;28;20026;-83
2022/10/22 05:24:36;;;;;;;54.40;29.13;;;8.20;99.90;;;;;;10410036;28;20033;-78
2022/10/22 05:29:36;;;;;;;41.60;21.67;;;8.20;99.90;;;;;;10401547;28;20038;-81
2022/10/22 05:34:37;;;;;;;66.83;29.20;;;8.30;99.90;;;;;;10406562;28;20041;-79
2022/10/22 05:39:39;;;;;;;52.83;27.93;;;8.40;99.90;;;;;;10399070;28;20038;-79
2022/10/22 05:44:40;;;;;;;58.73;28.67;;;8.40;99.90;;;;;;10408147;28;20040;-79
2022/10/22 05:49:40;;;;;;;53.10;29.00;;;8.20;99.90;;;;;;10408432;28;20124;-80
2022/10/22 05:54:41;;;;;;;55.00;28.90;;;8.00;99.90;;;;;;10403735;28;20533;-78
2022/10/22 05:59:42;;;;;;;47.33;25.17;;;7.90;99.90;;;;;;10386062;28;20033;-80
2022/10/22 06:04:42;;;;;;;105.97;49.17;;;8.00;99.90;;;;;;10397489;28;20041;-82
2022/10/22 06:09:43;;;;;;;123.10;53.33;;;8.00;99.90;;;;;;10402891;28;20049;-79
2022/10/22 06:14:44;;;;;;;75.70;38.60;;;8.10;99.90;;;;;;10405509;28;20042;-79
2022/10/22 06:19:45;;;;;;;48.13;24.23;;;8.20;99.90;;;;;;10405970;28;20061;-79
2022/10/22 06:24:45;;;;;;;72.67;34.63;;;8.30;99.90;;;;;;10405319;28;20682;-83
2022/10/22 06:29:47;;;;;;;40.27;20.07;;;8.60;99.90;;;;;;10405451;28;20099;-79
2022/10/22 06:34:49;;;;;;;51.10;22.73;;;8.90;99.90;;;;;;10406630;28;20049;-79
2022/10/22 06:39:50;;;;;;;39.80;20.60;;;9.30;99.90;;;;;;10406785;28;20045;-79
2022/10/22 06:44:51;;;;;;;32.23;18.83;;;9.70;99.90;;;;;;10401005;28;20029;-82
2022/10/22 06:49:51;;;;;;;35.33;17.52;;;9.90;99.90;;;;;;10385060;28;20038;-78
2022/10/22 06:54:52;;;;;;;28.23;14.57;;;10.10;99.90;;;;;;10399340;28;20045;-79
2022/10/22 06:59:52;;;;;;;32.63;15.95;;;10.20;99.90;;;;;;10400416;28;20031;-79
2022/10/22 07:04:53;;;;;;;31.92;17.35;;;10.40;99.90;;;;;;10391901;28;20026;-81
2022/10/22 07:09:53;;;;;;;62.33;29.13;;;10.50;99.90;;;;;;10395505;28;20021;-80
2022/10/22 07:14:54;;;;;;;29.83;17.27;;;10.60;99.90;;;;;;10398765;28;20037;-80
2022/10/22 07:19:54;;;;;;;32.60;17.98;;;10.80;99.90;;;;;;10392058;28;20022;-79
2022/10/22 07:24:55;;;;;;;40.30;20.95;;;11.00;99.90;;;;;;10396389;28;20021;-79
2022/10/22 07:29:59;;;;;;;38.83;19.88;;;11.30;99.90;;;;;;10400706;28;20037;-79
2022/10/22 07:35:00;;;;;;;47.10;25.02;;;11.40;99.90;;;;;;10404437;28;20429;-78
2022/10/22 07:40:01;;;;;;;36.22;21.10;;;11.60;99.90;;;;;;10396334;28;20704;-79
2022/10/22 07:45:02;;;;;;;39.22;23.73;;;11.70;99.90;;;;;;10394948;28;20119;-79
2022/10/22 07:50:03;;;;;;;48.17;25.38;;;11.80;99.90;;;;;;10401609;28;20117;-78
2022/10/22 07:55:04;;;;;;;39.78;24.40;;;12.00;99.90;;;;;;10397031;28;20042;-77
2022/10/22 08:00:06;;;;;;;38.22;21.63;;;12.10;99.90;;;;;;10380591;28;20426;-80
2022/10/22 08:05:07;;;;;;;27.48;17.10;;;12.20;99.90;;;;;;10398855;28;20034;-78
2022/10/22 08:10:09;;;;;;;30.27;18.27;;;12.20;99.90;;;;;;10387284;28;20022;-77
2022/10/22 08:15:10;;;;;;;47.65;24.13;;;12.30;99.90;;;;;;10393223;28;20592;-78
2022/10/22 08:20:10;;;;;;;116.75;58.08;;;12.40;99.90;;;;;;10402623;28;20151;-78
2022/10/22 08:25:11;;;;;;;22.23;14.05;;;12.50;99.90;;;;;;10398148;28;20043;-79
2022/10/22 08:30:13;;;;;;;25.25;14.32;;;12.50;99.90;;;;;;10401046;28;20413;-77
2022/10/22 08:35:13;;;;;;;25.92;14.85;;;12.50;99.90;;;;;;10405771;28;20042;-79
2022/10/22 08:40:24;;;;;;;22.30;13.85;;;12.50;99.90;;;;;;10389083;28;20056;-79
2022/10/22 08:45:39;;;;;;;29.58;15.50;;;12.70;99.90;;;;;;10402245;28;20037;-81
2022/10/22 08:50:48;;;;;;;29.75;17.63;;;12.80;99.90;;;;;;10380582;28;20517;-80
2022/10/22 08:55:52;;;;;;;30.75;17.75;;;12.80;99.90;;;;;;10392889;28;20053;-79
2022/10/22 09:01:04;;;;;;;46.70;22.17;;;12.80;99.90;;;;;;10390301;28;20141;-76
2022/10/22 09:06:18;;;;;;;34.35;18.17;;;12.80;99.90;;;;;;10405156;28;20037;-81
2022/10/22 09:11:35;;;;;;;47.88;23.73;;;12.80;99.90;;;;;;10401396;28;20030;-82
2022/10/22 09:16:53;;;;;;;31.50;15.75;;;12.80;99.90;;;;;;10384506;28;20037;-78
2022/10/22 09:22:22;;;;;;;63.05;27.13;;;12.80;99.90;;;;;;10409197;28;20095;-79
2022/10/22 09:27:28;;;;;;;58.67;25.35;;;12.80;99.90;;;;;;10403933;28;20033;-80
2022/10/22 09:32:30;;;;;;;34.00;18.10;;;12.90;99.90;;;;;;10401850;28;20469;-79
2022/10/22 09:37:31;;;;;;;41.78;20.17;;;12.90;99.90;;;;;;10401140;28;20413;-78
2022/10/22 09:42:33;;;;;;;60.83;29.52;;;12.90;99.90;;;;;;10403526;28;20029;-79
2022/10/22 09:47:37;;;;;;;48.83;24.73;;;12.80;99.90;;;;;;10395885;28;20026;-81
2022/10/22 09:52:39;;;;;;;42.45;22.88;;;12.90;99.90;;;;;;10392215;28;20026;-79
2022/10/22 09:57:39;;;;;;;41.28;20.38;;;12.90;99.90;;;;;;10394861;28;20043;-81
2022/10/22 10:02:41;;;;;;;60.45;26.15;;;12.90;99.90;;;;;;10400596;28;20036;-80
2022/10/22 10:07:42;;;;;;;43.13;23.90;;;13.00;99.90;;;;;;10403905;28;20045;-82
2022/10/22 10:12:45;;;;;;;76.75;38.03;;;13.00;99.90;;;;;;10393824;28;20029;-79
2022/10/22 10:18:34;;;;;;;66.43;34.83;;;13.00;99.90;;;;;;10398120;28;20037;-80
2022/10/22 10:24:15;;;;;;;35.45;19.73;;;13.00;99.90;;;;;;10304005;28;20376;-80
2022/10/22 10:29:32;;;;;;;42.60;21.38;;;13.00;99.90;;;;;;10382700;28;20056;-84
2022/10/22 10:35:01;;;;;;;38.97;20.48;;;12.90;99.90;;;;;;10391520;28;20042;-83
2022/10/22 10:40:01;;;;;;;53.30;32.00;;;12.80;99.90;;;;;;10388237;28;20034;-80
2022/10/22 10:45:19;;;;;;;37.15;20.58;;;12.60;99.90;;;;;;10395851;28;20037;-80
2022/10/22 10:50:29;;;;;;;51.70;27.20;;;12.50;99.90;;;;;;10401243;28;20017;-80
2022/10/22 10:55:58;;;;;;;40.65;24.45;;;12.40;99.90;;;;;;10384261;28;20534;-82
2022/10/22 11:01:16;;;;;;;67.28;39.47;;;12.40;99.90;;;;;;10387456;28;20056;-79
2022/10/22 11:06:19;;;;;;;121.00;56.63;;;12.40;99.90;;;;;;10377995;28;20125;-79
2022/10/22 11:11:38;;;;;;;368.83;135.18;;;12.40;99.90;;;;;;10370170;28;20021;-81
2022/10/22 11:16:45;;;;;;;124.88;45.80;;;12.40;99.90;;;;;;10386705;28;20374;-82
2022/10/22 11:21:53;;;;;;;135.00;54.95;;;12.50;99.90;;;;;;10387825;28;20160;-79
2022/10/22 11:27:05;;;;;;;121.72;46.75;;;12.50;99.90;;;;;;10384861;28;20057;-82
2022/10/22 11:32:18;;;;;;;46.38;24.35;;;12.60;99.90;;;;;;10390141;28;20033;-79
2022/10/22 11:37:19;;;;;;;43.53;24.83;;;12.60;99.90;;;;;;10379321;28;20025;-81
2022/10/22 11:42:43;;;;;;;38.22;23.08;;;12.70;99.90;;;;;;10382472;28;20077;-83
2022/10/22 11:48:09;;;;;;;38.03;21.98;;;12.80;99.90;;;;;;10393506;28;20525;-80
2022/10/22 11:53:12;;;;;;;47.28;26.30;;;12.70;99.90;;;;;;10388666;28;20056;-79
2022/10/22 11:58:28;;;;;;;55.20;28.65;;;12.80;99.90;;;;;;10387735;28;20116;-80
2022/10/22 12:03:32;;;;;;;215.23;79.90;;;12.70;99.90;;;;;;10395770;28;20033;-79
2022/10/22 12:08:33;;;;;;;68.32;32.95;;;12.70;99.90;;;;;;10388383;28;20141;-79
2022/10/22 12:13:57;;;;;;;44.55;23.75;;;12.80;99.90;;;;;;10401421;28;20029;-82
2022/10/22 12:19:04;;;;;;;44.10;27.17;;;12.80;99.90;;;;;;10407561;28;20053;-79
2022/10/22 12:24:06;;;;;;;50.05;24.45;;;12.80;99.90;;;;;;10411007;28;20120;-79
2022/10/22 12:29:11;;;;;;;44.97;26.27;;;12.80;99.90;;;;;;10410602;28;20025;-79
2022/10/22 12:34:20;;;;;;;41.58;23.00;;;12.80;99.90;;;;;;10393478;28;20050;-80
2022/10/22 12:39:31;;;;;;;39.92;23.25;;;12.70;99.90;;;;;;10399645;28;20029;-79
2022/10/22 12:44:32;;;;;;;35.83;21.65;;;12.80;99.90;;;;;;10389111;28;20036;-80
2022/10/22 12:49:44;;;;;;;37.33;22.02;;;12.70;99.90;;;;;;10403680;28;20040;-79
2022/10/22 12:54:51;;;;;;;34.58;20.98;;;12.70;99.90;;;;;;10386729;28;20088;-81
2022/10/22 12:59:52;;;;;;;33.85;20.83;;;12.70;99.90;;;;;;10396176;28;20431;-80
2022/10/22 13:05:11;;;;;;;35.90;21.48;;;12.60;99.90;;;;;;10401161;28;20052;-80
2022/10/22 13:10:39;;;;;;;58.50;33.20;;;12.60;99.90;;;;;;10398135;28;20041;-80
2022/10/22 13:15:39;;;;;;;48.33;25.27;;;12.60;99.90;;;;;;10404446;28;20535;-79
2022/10/22 13:20:50;;;;;;;211.77;115.38;;;12.60;99.90;;;;;;10406811;28;20037;-82
2022/10/22 13:26:09;;;;;;;58.92;34.47;;;12.50;99.90;;;;;;10406730;28;20035;-79
2022/10/22 13:31:17;;;;;;;39.13;21.80;;;12.50;99.90;;;;;;10405426;28;20025;-81
2022/10/22 13:36:18;;;;;;;37.58;22.95;;;12.40;99.90;;;;;;10403989;28;20041;-79
2022/10/22 13:41:29;;;;;;;38.50;21.52;;;12.30;99.90;;;;;;10400084;28;20535;-79
2022/10/22 13:46:30;;;;;;;37.55;23.40;;;12.20;99.90;;;;;;10404074;28;20034;-79
2022/10/22 13:51:34;;;;;;;44.50;26.58;;;12.10;99.90;;;;;;10397333;28;20730;-82
2022/10/22 13:56:34;;;;;;;54.72;32.83;;;12.00;99.90;;;;;;10397334;28;20076;-79
2022/10/22 14:01:36;;;;;;;61.75;36.90;;;12.00;99.90;;;;;;10391530;28;20028;-81
2022/10/22 14:06:36;;;;;;;76.07;41.78;;;12.00;99.90;;;;;;10404261;28;20045;-83
2022/10/22 14:11:37;;;;;;;62.90;36.58;;;11.90;99.90;;;;;;10392499;28;20103;-79
2022/10/22 14:16:38;;;;;;;61.08;37.40;;;11.80;99.90;;;;;;10394799;28;20042;-80
2022/10/22 14:21:38;;;;;;;76.55;43.70;;;11.80;99.90;;;;;;10396701;28;20105;-82
2022/10/22 14:26:39;;;;;;;72.38;41.55;;;11.70;99.90;;;;;;10400785;28;20033;-79
2022/10/22 14:31:42;;;;;;;70.00;38.67;;;11.60;99.90;;;;;;10404251;28;20033;-79
2022/10/22 14:36:42;;;;;;;51.10;30.77;;;11.60;99.90;;;;;;10394251;28;20044;-79
2022/10/22 14:41:43;;;;;;;48.70;29.60;;;11.60;99.90;;;;;;10384027;28;20021;-79
2022/10/22 14:46:45;;;;;;;62.63;34.72;;;11.50;99.90;;;;;;10394645;28;20108;-78
2022/10/22 14:51:46;;;;;;;66.35;37.55;;;11.50;99.90;;;;;;10402041;28;20029;-79
2022/10/22 14:56:47;;;;;;;60.90;36.47;;;11.50;99.90;;;;;;10399501;28;20029;-79
2022/10/22 15:01:47;;;;;;;71.80;39.83;;;11.50;99.90;;;;;;10396842;28;20108;-79
2022/10/22 15:06:48;;;;;;;99.45;57.70;;;11.40;99.90;;;;;;10398176;28;20057;-79
2022/10/22 15:11:49;;;;;;;104.05;60.20;;;11.40;99.90;;;;;;10402484;28;20036;-80
2022/10/22 15:16:50;;;;;;;84.47;49.47;;;11.40;99.90;;;;;;10390772;28;20037;-79
2022/10/22 15:21:50;;;;;;;84.93;48.55;;;11.30;99.90;;;;;;10399562;28;20030;-81
2022/10/22 15:26:52;;;;;;;86.88;48.33;;;11.30;99.90;;;;;;10397733;28;20041;-80
2022/10/22 15:31:56;;;;;;;65.82;39.13;;;11.30;99.90;;;;;;10397410;28;20068;-82
2022/10/22 15:36:59;;;;;;;99.50;50.22;;;11.30;99.90;;;;;;10396130;28;20037;-81
2022/10/22 15:42:00;;;;;;;65.78;39.95;;;11.30;99.90;;;;;;10388508;28;20041;-80
2022/10/22 15:47:05;;;;;;;65.15;40.17;;;11.30;99.90;;;;;;10382093;28;20033;-81
2022/10/22 15:52:05;;;;;;;99.03;51.42;;;11.20;99.90;;;;;;10394234;28;20029;-79
2022/10/22 15:57:07;;;;;;;73.22;42.30;;;11.20;99.90;;;;;;10393147;28;20705;-84
2022/10/22 16:02:09;;;;;;;78.97;41.85;;;11.20;99.90;;;;;;10399198;28;20041;-81
2022/10/22 16:07:10;;;;;;;86.38;44.55;;;11.10;99.90;;;;;;10399070;28;20111;-84
2022/10/22 16:12:10;;;;;;;162.48;69.93;;;11.10;99.90;;;;;;10390456;28;20033;-82
2022/10/22 16:17:11;;;;;;;124.20;60.00;;;11.00;99.90;;;;;;10403634;28;20061;-80
2022/10/22 16:22:14;;;;;;;87.68;43.30;;;11.00;99.90;;;;;;10398268;28;20500;-83
2022/10/22 16:27:14;;;;;;;87.38;46.45;;;11.00;99.90;;;;;;10404533;28;20828;-80
2022/10/22 16:32:16;;;;;;;91.78;47.63;;;11.00;99.90;;;;;;10396392;28;20037;-80
2022/10/22 16:37:16;;;;;;;93.45;46.83;;;11.00;99.90;;;;;;10390614;28;20067;-80
2022/10/22 16:42:17;;;;;;;79.50;45.10;;;10.90;99.90;;;;;;10400963;28;20423;-80
2022/10/22 16:47:18;;;;;;;86.43;48.80;;;10.90;99.90;;;;;;10389730;28;20115;-80
2022/10/22 16:52:18;;;;;;;300.73;235.43;;;10.90;99.90;;;;;;10396257;28;20034;-84
2022/10/22 16:57:19;;;;;;;98.10;59.35;;;10.90;99.90;;;;;;10400125;28;20382;-80
2022/10/22 17:02:19;;;;;;;149.00;83.93;;;10.90;99.90;;;;;;10402058;28;20499;-83
2022/10/22 17:07:20;;;;;;;90.60;53.17;;;10.90;99.90;;;;;;10409886;28;20060;-81
2022/10/22 17:12:20;;;;;;;90.95;55.35;;;10.90;99.90;;;;;;10400750;28;20034;-82
2022/10/22 17:17:21;;;;;;;101.03;57.75;;;10.90;99.90;;;;;;10399694;28;20107;-81
2022/10/22 17:22:22;;;;;;;108.97;62.50;;;10.90;99.90;;;;;;10396310;28;20470;-83
2022/10/22 17:27:22;;;;;;;109.88;64.60;;;10.90;99.90;;;;;;10398216;28;20116;-80
2022/10/22 17:32:23;;;;;;;146.00;86.28;;;10.90;99.90;;;;;;10405476;28;20034;-83
2022/10/22 17:37:24;;;;;;;149.25;83.07;;;10.90;99.90;;;;;;10395010;28;20056;-80
2022/10/22 17:42:24;;;;;;;112.18;66.75;;;10.90;99.90;;;;;;10407535;28;20071;-81
2022/10/22 17:47:25;;;;;;;125.50;71.45;;;10.80;99.90;;;;;;10392964;28;20394;-82
2022/10/22 17:52:25;;;;;;;132.20;77.20;;;10.80;99.90;;;;;;10403515;28;20030;-78
2022/10/22 17:57:26;;;;;;;115.03;66.53;;;10.80;99.90;;;;;;10398243;28;20044;-79
2022/10/22 18:02:29;;;;;;;117.47;71.07;;;10.80;99.90;;;;;;10395825;28;20041;-79
2022/10/22 18:07:29;;;;;;;111.72;62.95;;;10.80;99.90;;;;;;10392509;28;20046;-79
2022/10/22 18:12:30;;;;;;;125.40;73.38;;;10.80;99.90;;;;;;10406148;28;20520;-79
2022/10/22 18:17:30;;;;;;;128.05;69.65;;;10.80;99.90;;;;;;10400380;28;20049;-83
2022/10/22 18:22:31;;;;;;;112.13;62.42;;;10.90;99.90;;;;;;10393729;28;20038;-83
2022/10/22 18:27:32;;;;;;;134.43;72.03;;;10.90;99.90;;;;;;10386623;28;20034;-79
2022/10/22 18:32:33;;;;;;;141.73;73.28;;;10.90;99.90;;;;;;10386286;28;20045;-83
2022/10/22 18:37:35;;;;;;;158.88;81.57;;;10.90;99.90;;;;;;10399019;28;20175;-79
2022/10/22 18:42:36;;;;;;;148.93;79.65;;;10.90;99.90;;;;;;10390181;28;20026;-84
2022/10/22 18:47:40;;;;;;;154.80;80.25;;;10.90;99.90;;;;;;10386986;28;20037;-81
2022/10/22 18:52:40;;;;;;;242.57;113.93;;;10.90;99.90;;;;;;10392856;28;20040;-80
2022/10/22 18:57:41;;;;;;;142.60;76.93;;;10.90;99.90;;;;;;10398579;28;20045;-79
2022/10/22 19:02:41;;;;;;;150.25;78.25;;;10.90;99.90;;;;;;10405430;28;20038;-78
2022/10/22 19:07:42;;;;;;;157.82;80.70;;;11.00;99.90;;;;;;10391591;28;20504;-78
2022/10/22 19:12:43;;;;;;;180.98;88.82;;;11.00;99.90;;;;;;10394248;28;20033;-84
2022/10/22 19:17:43;;;;;;;165.65;85.95;;;11.00;99.90;;;;;;10401561;28;20045;-79
2022/10/22 19:22:44;;;;;;;152.00;83.05;;;11.10;99.90;;;;;;10383185;28;20033;-81
2022/10/22 19:27:44;;;;;;;162.02;85.88;;;11.10;99.90;;;;;;10386930;28;20474;-79
2022/10/22 19:32:47;;;;;;;157.00;87.40;;;11.10;99.90;;;;;;10383661;28;20038;-79
2022/10/22 19:37:48;;;;;;;151.48;84.13;;;11.20;99.90;;;;;;10397994;28;20044;-82
2022/10/22 19:42:50;;;;;;;141.25;77.00;;;11.20;99.90;;;;;;10401963;28;20036;-81
2022/10/22 19:47:50;;;;;;;137.55;77.00;;;11.20;99.90;;;;;;10401328;28;20112;-83
2022/10/22 19:52:51;;;;;;;136.00;79.22;;;11.30;99.90;;;;;;10381975;28;20037;-80
2022/10/22 19:57:51;;;;;;;135.85;78.82;;;11.40;99.90;;;;;;10402732;28;20095;-82
2022/10/22 20:02:52;;;;;;;131.70;74.43;;;11.40;99.90;;;;;;10401602;28;20481;-79
2022/10/22 20:07:52;;;;;;;115.25;64.38;;;11.40;99.90;;;;;;10392426;28;20057;-79
2022/10/22 20:12:53;;;;;;;134.02;74.05;;;11.40;99.90;;;;;;10402302;28;20025;-81
2022/10/22 20:17:54;;;;;;;140.40;75.03;;;11.40;99.90;;;;;;10403680;28;20044;-81
2022/10/22 20:22:54;;;;;;;145.13;85.60;;;11.40;99.90;;;;;;10384436;28;20030;-79
2022/10/22 20:27:55;;;;;;;138.70;80.57;;;11.40;99.90;;;;;;10393192;28;20021;-81
2022/10/22 20:32:55;;;;;;;129.57;71.03;;;11.50;99.90;;;;;;10408377;28;20038;-82
2022/10/22 20:37:56;;;;;;;102.20;56.92;;;11.60;99.90;;;;;;10410575;28;20095;-78
2022/10/22 20:43:00;;;;;;;132.18;63.60;;;11.60;99.90;;;;;;10409921;28;20087;-79
2022/10/22 20:48:01;;;;;;;107.63;59.30;;;11.60;99.90;;;;;;10410102;28;20033;-79
2022/10/22 20:53:01;;;;;;;98.50;55.83;;;11.70;99.90;;;;;;10402435;28;20045;-81
2022/10/22 20:58:02;;;;;;;115.72;66.28;;;11.70;99.90;;;;;;10408580;28;20506;-79
2022/10/22 21:03:02;;;;;;;108.40;67.28;;;11.70;99.90;;;;;;10409260;28;20029;-83
2022/10/22 21:08:04;;;;;;;115.95;73.50;;;11.70;99.90;;;;;;10409569;28;20053;-77
2022/10/22 21:13:04;;;;;;;114.75;67.88;;;11.70;99.90;;;;;;10409439;28;20025;-79
2022/10/22 21:18:06;;;;;;;108.18;64.95;;;11.70;99.90;;;;;;10409055;28;20049;-83
2022/10/22 21:23:07;;;;;;;122.78;66.75;;;11.70;99.90;;;;;;10384030;28;20034;-79
2022/10/22 21:28:07;;;;;;;113.32;63.88;;;11.70;99.90;;;;;;10385192;28;20485;-78
2022/10/22 21:33:08;;;;;;;113.10;63.00;;;11.70;99.90;;;;;;10404208;28;20041;-78
2022/10/22 21:38:08;;;;;;;115.30;64.05;;;11.70;99.90;;;;;;10399247;28;20500;-80
2022/10/22 21:43:09;;;;;;;115.15;67.18;;;11.70;99.90;;;;;;10394707;28;20033;-79
2022/10/22 21:48:12;;;;;;;116.78;65.05;;;11.80;99.90;;;;;;10407358;28;20029;-79
2022/10/22 21:53:12;;;;;;;118.90;66.55;;;11.70;99.90;;;;;;10396136;28;20105;-81
2022/10/22 21:58:13;;;;;;;125.55;72.38;;;11.80;99.90;;;;;;10393732;28;20038;-79
2022/10/22 22:03:13;;;;;;;114.38;66.00;;;11.80;99.90;;;;;;10399682;28;20025;-79
2022/10/22 22:08:14;;;;;;;117.93;70.40;;;11.80;99.90;;;;;;10397803;28;20053;-79
2022/10/22 22:13:16;;;;;;;107.18;61.72;;;11.80;99.90;;;;;;10401661;28;20042;-82
2022/10/22 22:18:17;;;;;;;111.13;62.47;;;11.90;99.90;;;;;;10394815;28;20030;-79
2022/10/22 22:23:17;;;;;;;107.78;61.90;;;11.90;99.90;;;;;;10407249;28;20029;-79
2022/10/22 22:28:18;;;;;;;107.03;59.58;;;11.90;99.90;;;;;;10392847;28;20056;-81
2022/10/22 22:33:18;;;;;;;101.68;57.53;;;11.90;99.90;;;;;;10406437;28;20037;-79
2022/10/22 22:38:19;;;;;;;91.50;53.60;;;11.90;99.90;;;;;;10404702;28;20037;-81
2022/10/22 22:43:19;;;;;;;92.13;54.83;;;11.90;99.90;;;;;;10405609;28;20030;-82
2022/10/22 22:48:20;;;;;;;106.20;60.40;;;11.90;99.90;;;;;;10404557;28;20036;-78
2022/10/22 22:53:21;;;;;;;103.20;56.78;;;11.90;99.90;;;;;;10405505;28;20029;-79
2022/10/22 22:58:21;;;;;;;89.22;52.45;;;11.80;99.90;;;;;;10404593;28;20585;-81
2022/10/22 23:03:22;;;;;;;94.72;55.33;;;11.80;99.90;;;;;;10392425;28;20025;-83
2022/10/22 23:08:22;;;;;;;84.93;48.40;;;11.80;99.90;;;;;;10403217;28;20049;-79
2022/10/22 23:13:23;;;;;;;92.75;51.55;;;11.80;99.90;;;;;;10403664;28;20041;-82
2022/10/22 23:18:24;;;;;;;95.43;51.25;;;11.80;99.90;;;;;;10383508;28;20846;-79
2022/10/22 23:23:28;;;;;;;79.70;47.35;;;11.80;99.90;;;;;;10380045;28;20026;-79
2022/10/22 23:28:28;;;;;;;85.65;50.63;;;11.80;99.90;;;;;;10398716;28;20026;-81
2022/10/22 23:33:34;;;;;;;86.68;52.38;;;11.80;99.90;;;;;;10392861;28;20037;-79
2022/10/22 23:38:36;;;;;;;91.80;50.17;;;11.80;99.90;;;;;;10398974;28;20044;-79
2022/10/22 23:43:37;;;;;;;78.00;45.58;;;11.80;99.90;;;;;;10402548;28;20363;-80
2022/10/22 23:48:39;;;;;;;81.68;46.95;;;11.70;99.90;;;;;;10402242;28;20025;-80
2022/10/22 23:53:41;;;;;;;82.07;47.75;;;11.70;99.90;;;;;;10401221;28;20122;-82
2022/10/22 23:58:42;;;;;;;81.53;46.70;;;11.70;99.90;;;;;;10406990;28;20855;-79
